< < Back
Terminal Aerodrome Forecast


Current Version              Previous Versions:   1  2  3  4  5  6  7  8  9  

Terminal Aerodrome Forecast

078
FTUS44 KBMX 011139
TAFMGM
TAF
KMGM 011139Z 0112/0212 VRB03KT P6SM SCT050=



Latest METAR

981
SAUS80 KWBC 021300
MTRMGM
METAR KMGM 021253Z 07004KT 10SM CLR 25/22 A3009 RMK AO2 SLP185
T02500217


USA.gov is the U.S. government's official web portal to all federal, state and local government web resources and services.